Lenapah, Oklahoma
Current Conditions -  °F | °C
As of 8:52 AM on Sunday 23 Nov 2014 (Local Time) from KCFV Reporting Station
Overcast Overcast  
Wind Chill: 59°   Ceiling: 1100
Heat Index: 59°   Visibility: 10mi
Dew Point: 55°   Wind: 16mph
Humidity: 87%   Direction: 190°S
Pressure: 29.48"   Gusts: NA
Location:  36.85°N, 95.64°W
Report Text: KCFV 231452Z AUTO 19014KT 10SM OVC011 15/13 A2948 RMK AO2 SLP981 T01500128 56018
Loading
Personal Weather Stations






























Interactive Weather Map New forecast layout! Learn more

10-Day Weather Forecast

Advertisements
Track Severe Weather on mobile